Terminal Aerodrome Forecast
Issued by NWS

Home | Current Version | Previous Version | Graphics & Text | Print | Product List | Glossary On
Versions: 1 2 3 4 5 6 7 8 9 10 11 12 13 14
721
FTUS43 KGRB 081137
TAFATW
TAF
KATW 081137Z 0812/0912 27006KT P6SM -SN SCT015 OVC040
      TEMPO 0812/0815 4SM -SN BKN015
     FM081600 30010G18KT 4SM -SN BR BKN015 OVC025
     FM090000 34012KT 5SM -SN BR OVC011
     FM090600 32014G21KT 6SM -SN BKN015=

USA.gov is the U.S. government's official web portal to all federal, state and local government web resources and services.